< < Back
Terminal Aerodrome Forecast


Current Version              Previous Versions:   1  2  3  4  5  6  7  8  9  

Terminal Aerodrome Forecast

641
FTAK31 PAJN 311139
TAFAHN
TAF
PAHN 311139Z 3112/0112 VRB04KT P6SM VCFG BKN100
     FM311500 31004KT P6SM SCT050 BKN100
     FM311800 VRB04KT P6SM VCSH BKN050
     FM312100 13006KT P6SM -SHRA OVC050
     FM010500 VRB06KT P6SM VCSH BKN040
      AMD LTD TO CLD VIS AND WIND=



Latest METAR

291
SAUS70 KWBC 312000 RRX
MTRAHN
METAR KAHN 312051Z 10SM CLR 34/18 A2991 RMK AO2 SLP120 T03440183
56024


USA.gov is the U.S. government's official web portal to all federal, state and local government web resources and services.